Time;durP1;ratioP1;P1;durP2;ratioP2;P2;SDS_P1;SDS_P2;PMS_P1;PMS_P2;Temp;Humidity;BMP_temperature;BMP_pressure;BME280_temperature;BME280_humidity;BME280_pressure;Samples;Min_cycle;Max_cycle;Signal;HPM_P1;HPM_P2
2023/06/26 00:02:26;;;;;;;18.70;10.60;;;;;;;26.41;57.19;99557.89;107778;1256;72670;-67
2023/06/26 00:04:53;;;;;;;18.10;10.40;;;;;;;26.43;57.03;99560.82;107780;1257;60467;-66
2023/06/26 00:07:21;;;;;;;15.90;11.20;;;;;;;26.59;56.81;99563.70;107783;1256;59602;-68
2023/06/26 00:09:48;;;;;;;13.60;10.20;;;;;;;26.54;56.66;99562.09;107824;1256;72999;-67
2023/06/26 00:12:15;;;;;;;16.10;10.80;;;;;;;26.47;56.80;99558.83;107763;1258;69975;-67
2023/06/26 00:14:43;;;;;;;18.70;10.40;;;;;;;26.23;57.39;99562.18;107767;1257;71993;-68
2023/06/26 00:17:11;;;;;;;13.40;9.90;;;;;;;26.08;57.85;99559.73;107790;1257;61589;-67
2023/06/26 00:19:39;;;;;;;19.80;10.40;;;;;;;25.88;58.43;99559.08;107807;1257;59493;-68
2023/06/26 00:22:06;;;;;;;14.10;10.00;;;;;;;25.83;58.60;99556.94;107717;1257;72021;-68
2023/06/26 00:24:33;;;;;;;12.60;10.70;;;;;;;25.78;58.74;99551.81;107630;1257;70177;-66
2023/06/26 00:27:01;;;;;;;13.10;10.70;;;;;;;25.73;58.74;99552.05;107643;1257;72675;-67
2023/06/26 00:29:28;;;;;;;16.20;9.80;;;;;;;25.83;58.37;99547.21;107696;1257;62123;-67
2023/06/26 00:31:56;;;;;;;14.40;10.30;;;;;;;25.89;58.17;99545.33;107695;1256;59076;-69
2023/06/26 00:34:23;;;;;;;15.70;10.10;;;;;;;25.94;58.08;99546.55;107722;1261;72845;-67
2023/06/26 00:36:51;;;;;;;15.20;11.00;;;;;;;25.85;58.06;99547.69;107739;1257;72725;-68
2023/06/26 00:39:18;;;;;;;12.70;9.90;;;;;;;25.94;57.77;99548.28;107732;1257;71418;-68
2023/06/26 00:41:45;;;;;;;13.30;10.00;;;;;;;25.93;57.64;99546.98;107639;1260;60408;-67
2023/06/26 00:44:13;;;;;;;15.10;10.80;;;;;;;26.02;57.42;99548.92;107755;1256;59014;-68
2023/06/26 00:46:40;;;;;;;13.10;9.60;;;;;;;25.71;58.15;99549.02;107984;1255;72547;-68
2023/06/26 00:49:07;;;;;;;12.20;9.80;;;;;;;25.67;58.29;99545.34;107633;1257;70042;-69
2023/06/26 00:51:35;;;;;;;12.80;9.70;;;;;;;25.72;58.15;99545.31;107780;1257;75088;-67
2023/06/26 00:54:02;;;;;;;14.90;9.90;;;;;;;25.68;58.07;99541.30;107748;1257;61592;-69
2023/06/26 00:56:31;;;;;;;14.30;11.00;;;;;;;25.65;58.14;99541.58;107810;1257;60034;-68
2023/06/26 00:58:58;;;;;;;16.40;10.40;;;;;;;25.69;57.89;99544.94;107657;1257;71892;-67
2023/06/26 01:01:26;;;;;;;11.30;9.60;;;;;;;25.65;57.96;99538.36;107805;1256;70233;-68
2023/06/26 01:03:53;;;;;;;13.30;10.10;;;;;;;25.70;57.72;99538.40;108457;1257;71271;-68
2023/06/26 01:06:22;;;;;;;13.20;10.20;;;;;;;25.55;57.93;99537.11;107945;1256;61605;-68
2023/06/26 01:08:49;;;;;;;13.80;10.10;;;;;;;25.56;58.01;99540.59;107537;1257;60023;-68
2023/06/26 01:11:18;;;;;;;14.80;10.60;;;;;;;25.49;58.15;99538.13;108583;1262;71952;-69
2023/06/26 01:13:46;;;;;;;11.40;9.00;;;;;;;25.49;58.24;99535.09;107758;1257;70604;-68
2023/06/26 01:16:13;;;;;;;11.80;9.20;;;;;;;25.54;58.14;99535.96;107780;1257;71133;-68
2023/06/26 01:18:41;;;;;;;13.20;10.50;;;;;;;25.54;58.13;99540.66;107794;1257;60223;-68
2023/06/26 01:21:09;;;;;;;13.00;9.70;;;;;;;25.62;57.78;99537.77;107789;1257;59986;-67
2023/06/26 01:23:47;;;;;;;12.60;10.00;;;;;;;25.57;57.97;99535.80;107678;1257;73177;-66
2023/06/26 01:26:19;;;;;;;13.30;9.80;;;;;;;25.65;57.56;99532.46;107756;1257;68229;-69
2023/06/26 01:28:47;;;;;;;13.90;9.80;;;;;;;25.69;57.48;99537.55;107714;1257;71452;-66
2023/06/26 01:31:14;;;;;;;15.20;10.20;;;;;;;25.65;57.51;99537.26;107835;1257;61710;-67
2023/06/26 01:33:41;;;;;;;12.20;9.50;;;;;;;25.72;57.34;99538.80;107619;1256;59404;-67
2023/06/26 01:36:09;;;;;;;16.40;10.80;;;;;;;25.94;56.70;99541.88;107634;1255;71868;-68
2023/06/26 01:38:36;;;;;;;15.90;10.40;;;;;;;25.89;56.89;99537.40;107575;1256;71454;-67
2023/06/26 01:41:04;;;;;;;17.80;11.10;;;;;;;25.78;57.24;99538.60;107955;1257;72796;-68
2023/06/26 01:43:38;;;;;;;15.40;10.60;;;;;;;25.64;57.56;99536.65;107718;1259;61626;-68
2023/06/26 01:46:25;;;;;;;16.10;10.90;;;;;;;25.84;57.09;99531.45;108635;1255;60184;-68
2023/06/26 01:49:10;;;;;;;16.40;9.70;;;;;;;25.72;57.25;99528.19;108587;1256;72870;-68
2023/06/26 01:52:10;;;;;;;10.20;9.00;;;;;;;25.69;57.41;99524.23;108655;1256;70780;-69
2023/06/26 01:54:47;;;;;;;14.60;9.80;;;;;;;25.72;57.17;99518.00;108086;1257;71849;-67
2023/06/26 01:57:14;;;;;;;18.50;10.10;;;;;;;25.42;57.97;99520.63;107659;1257;60849;-66
2023/06/26 01:59:42;;;;;;;13.00;9.90;;;;;;;25.47;57.92;99517.90;107821;1261;60303;-67
2023/06/26 02:02:09;;;;;;;17.90;10.90;;;;;;;25.49;57.71;99514.60;107561;1257;73923;-66
2023/06/26 02:04:37;;;;;;;13.10;10.00;;;;;;;25.48;57.71;99512.75;107817;1257;70737;-67
2023/06/26 02:07:06;;;;;;;11.70;9.70;;;;;;;25.45;57.64;99514.73;107690;1258;72525;-67
2023/06/26 02:09:33;;;;;;;15.30;9.40;;;;;;;25.53;57.29;99512.55;107769;1256;60568;-68
2023/06/26 02:12:00;;;;;;;13.90;9.70;;;;;;;25.39;57.65;99508.37;107735;1261;60273;-67
2023/06/26 02:14:30;;;;;;;12.30;8.70;;;;;;;25.31;57.73;99509.16;107647;1255;73222;-67
2023/06/26 02:17:00;;;;;;;13.90;9.50;;;;;;;25.36;57.72;99508.50;107819;1257;69430;-67
2023/06/26 02:19:27;;;;;;;13.60;9.80;;;;;;;25.42;57.48;99509.21;107758;1257;71904;-68
2023/06/26 02:21:54;;;;;;;11.70;9.60;;;;;;;25.38;57.62;99510.05;107873;1257;61689;-69
2023/06/26 02:24:23;;;;;;;13.40;9.00;;;;;;;25.16;58.13;99504.82;107816;1262;60315;-69
2023/06/26 02:26:51;;;;;;;16.90;8.60;;;;;;;24.96;58.72;99514.73;108474;1257;73836;-67
2023/06/26 02:29:18;;;;;;;11.90;8.10;;;;;;;24.95;58.75;99510.55;108432;1259;68919;-69
2023/06/26 02:31:46;;;;;;;13.40;8.90;;;;;;;25.01;58.63;99509.42;108745;1259;72988;-68
2023/06/26 02:34:13;;;;;;;9.80;8.10;;;;;;;25.08;58.25;99504.82;107637;1260;62722;-70
2023/06/26 02:36:41;;;;;;;11.50;8.30;;;;;;;25.08;58.22;99509.16;107596;1257;60328;-67
2023/06/26 02:39:08;;;;;;;10.80;8.80;;;;;;;25.02;58.20;99503.13;107641;1257;74029;-67
2023/06/26 02:41:35;;;;;;;10.80;8.20;;;;;;;25.09;58.09;99503.61;107736;1257;70250;-68
2023/06/26 02:44:04;;;;;;;12.10;8.40;;;;;;;25.19;57.83;99502.74;107757;1258;71084;-67
2023/06/26 02:46:33;;;;;;;10.30;8.10;;;;;;;25.10;57.90;99503.17;107834;1260;61091;-68
2023/06/26 02:49:00;;;;;;;12.00;8.30;;;;;;;25.07;57.98;99499.94;107717;1254;60333;-68
2023/06/26 02:51:28;;;;;;;12.30;8.60;;;;;;;25.08;57.92;99496.21;107737;1262;75790;-68
2023/06/26 02:53:56;;;;;;;11.40;7.80;;;;;;;25.09;57.76;99495.41;107903;1254;70625;-69
2023/06/26 02:56:23;;;;;;;11.90;8.10;;;;;;;25.18;57.52;99490.67;107906;1255;72661;-68
2023/06/26 02:58:51;;;;;;;9.40;7.90;;;;;;;25.11;57.47;99491.06;107719;1254;61772;-67
2023/06/26 03:01:19;;;;;;;11.90;8.30;;;;;;;25.03;57.80;99489.80;107889;1254;60455;-67
2023/06/26 03:03:47;;;;;;;11.80;8.00;;;;;;;25.18;57.47;99490.85;107735;1254;72561;-68
2023/06/26 03:06:16;;;;;;;11.20;7.90;;;;;;;25.19;57.33;99491.93;107869;1260;70046;-68
2023/06/26 03:08:44;;;;;;;13.20;8.30;;;;;;;25.28;57.34;99494.17;107773;1261;72462;-68
2023/06/26 03:11:12;;;;;;;10.60;7.60;;;;;;;25.20;57.40;99492.98;107777;1254;60801;-68
2023/06/26 03:13:39;;;;;;;9.20;7.50;;;;;;;25.35;57.09;99493.81;107862;1254;59650;-68
2023/06/26 03:16:06;;;;;;;9.90;8.30;;;;;;;25.63;56.40;99487.00;107893;1254;73814;-68
2023/06/26 03:18:34;;;;;;;11.40;8.20;;;;;;;25.67;56.33;99488.71;107560;1264;68171;-69
2023/06/26 03:21:01;;;;;;;9.20;7.80;;;;;;;25.66;56.37;99488.14;107872;1257;71345;-68
2023/06/26 03:23:29;;;;;;;10.40;8.20;;;;;;;25.74;56.17;99487.20;107819;1254;60890;-68
2023/06/26 03:25:57;;;;;;;9.60;8.00;;;;;;;25.89;55.81;99485.08;107979;1254;60466;-67
2023/06/26 03:28:31;;;;;;;12.40;7.70;;;;;;;26.10;55.25;99479.44;108053;1254;73094;-68
2023/06/26 03:30:58;;;;;;;10.40;7.60;;;;;;;26.10;55.39;99479.84;108136;1251;69231;-68
2023/06/26 03:33:26;;;;;;;10.80;7.80;;;;;;;26.20;55.37;99477.52;108081;1254;72717;-69
2023/06/26 03:35:54;;;;;;;13.50;7.90;;;;;;;26.38;55.12;99478.10;108166;1254;61017;-67
2023/06/26 03:38:22;;;;;;;9.90;6.90;;;;;;;26.46;55.03;99478.41;108131;1254;60395;-67
2023/06/26 03:40:49;;;;;;;11.90;7.90;;;;;;;26.66;54.47;99473.21;108030;1254;73202;-68
2023/06/26 03:43:17;;;;;;;10.70;7.30;;;;;;;26.90;53.70;99471.46;107970;1259;69255;-71
2023/06/26 03:46:05;;;;;;;11.00;7.90;;;;;;;27.11;53.31;99468.88;108348;1254;72690;-68
2023/06/26 03:48:32;;;;;;;9.30;7.50;;;;;;;27.21;52.80;99466.60;108060;1257;60844;-67
2023/06/26 03:51:02;;;;;;;9.40;7.30;;;;;;;27.37;52.55;99467.61;107934;1254;60297;-68
2023/06/26 03:53:30;;;;;;;7.80;5.20;;;;;;;27.51;52.08;99464.81;107932;1260;73781;-68
2023/06/26 03:55:57;;;;;;;11.20;7.20;;;;;;;27.70;51.40;99463.70;108142;1254;70381;-68
2023/06/26 03:58:25;;;;;;;8.30;6.80;;;;;;;27.69;51.05;99462.77;108026;1257;71182;-69
2023/06/26 04:00:53;;;;;;;9.10;6.80;;;;;;;27.76;50.74;99463.50;107854;1254;60953;-68
2023/06/26 04:03:20;;;;;;;11.00;7.10;;;;;;;27.86;50.48;99461.39;107907;1254;59983;-68
2023/06/26 04:05:48;;;;;;;10.80;7.00;;;;;;;27.89;50.04;99461.83;107967;1254;73749;-70
2023/06/26 04:08:15;;;;;;;12.00;7.40;;;;;;;28.03;49.47;99459.86;107963;1254;70003;-68
2023/06/26 04:10:45;;;;;;;9.30;7.20;;;;;;;28.19;48.72;99451.65;107987;1257;72496;-69
2023/06/26 04:13:14;;;;;;;11.90;7.00;;;;;;;28.18;48.40;99454.45;108054;1253;61684;-71
2023/06/26 04:15:41;;;;;;;11.20;7.40;;;;;;;28.11;48.70;99457.45;108088;1254;59625;-69
2023/06/26 04:18:08;;;;;;;8.20;7.40;;;;;;;28.11;48.84;99458.98;108080;1254;72982;-69
2023/06/26 04:20:39;;;;;;;9.00;7.20;;;;;;;28.24;48.77;99453.08;107970;1254;70414;-70
2023/06/26 04:23:07;;;;;;;9.50;7.10;;;;;;;28.25;48.63;99446.98;108007;1254;71649;-69
2023/06/26 04:25:37;;;;;;;9.50;6.90;;;;;;;28.53;48.38;99448.42;108683;1253;60390;-69
2023/06/26 04:28:05;;;;;;;9.40;6.90;;;;;;;28.79;47.53;99449.33;108473;1258;59887;-69
2023/06/26 04:30:32;;;;;;;9.20;6.90;;;;;;;29.04;47.05;99453.66;107882;1254;72586;-68
2023/06/26 04:33:01;;;;;;;9.40;7.10;;;;;;;29.17;46.57;99449.30;107961;1259;68699;-67
2023/06/26 04:35:28;;;;;;;9.00;6.90;;;;;;;29.28;46.39;99455.19;108112;1256;72699;-68
2023/06/26 04:37:55;;;;;;;12.20;6.90;;;;;;;29.26;46.12;99449.45;108060;1254;61689;-69
2023/06/26 04:40:23;;;;;;;8.30;6.40;;;;;;;29.28;45.94;99445.02;108052;1259;60278;-69
2023/06/26 04:42:50;;;;;;;9.40;7.20;;;;;;;29.23;45.54;99447.52;107967;1254;74395;-68
2023/06/26 04:45:18;;;;;;;8.50;6.90;;;;;;;29.10;45.83;99443.90;108122;1254;68941;-68
2023/06/26 04:47:45;;;;;;;10.90;7.40;;;;;;;29.06;45.51;99443.41;107838;1254;71268;-67
2023/06/26 04:50:12;;;;;;;7.50;6.70;;;;;;;29.01;45.28;99443.18;108039;1254;61721;-67
2023/06/26 04:52:40;;;;;;;9.50;6.60;;;;;;;29.00;45.14;99446.05;108015;1258;60469;-69
2023/06/26 04:55:07;;;;;;;9.20;6.80;;;;;;;29.05;45.26;99443.80;108049;1258;74127;-68
2023/06/26 04:57:34;;;;;;;8.80;6.70;;;;;;;29.05;45.63;99442.77;108183;1254;69318;-68
2023/06/26 05:00:06;;;;;;;11.00;6.70;;;;;;;29.09;45.43;99439.04;108117;1258;71757;-69
2023/06/26 05:02:33;;;;;;;8.20;6.40;;;;;;;29.14;45.50;99438.28;108013;1254;60305;-69
2023/06/26 05:05:01;;;;;;;9.10;6.60;;;;;;;29.79;44.28;99432.20;108311;1254;60434;-68
2023/06/26 05:07:28;;;;;;;9.30;6.60;;;;;;;30.12;43.58;99432.71;108065;1254;73295;-68
2023/06/26 05:09:56;;;;;;;8.30;6.50;;;;;;;29.81;43.73;99433.21;107966;1254;69956;-67
2023/06/26 05:12:23;;;;;;;9.00;6.90;;;;;;;29.60;43.86;99430.67;108416;1254;72490;-68
2023/06/26 05:14:50;;;;;;;8.30;6.70;;;;;;;29.45;44.20;99429.85;108005;1254;60665;-68
2023/06/26 05:17:18;;;;;;;7.10;6.30;;;;;;;29.52;43.93;99427.52;108041;1259;60408;-68
2023/06/26 05:19:46;;;;;;;7.40;6.00;;;;;;;29.57;43.66;99424.31;108058;1253;74307;-68
2023/06/26 05:22:13;;;;;;;8.90;6.60;;;;;;;29.47;43.68;99426.16;108059;1254;69557;-70
2023/06/26 05:24:41;;;;;;;9.00;6.60;;;;;;;29.47;43.83;99425.44;108060;1254;72353;-68
2023/06/26 05:27:09;;;;;;;9.90;6.30;;;;;;;29.16;44.14;99430.00;107971;1254;61771;-67
2023/06/26 05:29:37;;;;;;;8.00;6.70;;;;;;;29.17;44.18;99426.59;108007;1255;60316;-68
2023/06/26 05:32:06;;;;;;;9.70;7.10;;;;;;;29.20;44.15;99423.45;108079;1254;73773;-70
2023/06/26 05:34:34;;;;;;;7.80;6.40;;;;;;;29.14;43.96;99424.19;108228;1254;69016;-67
2023/06/26 05:37:01;;;;;;;8.30;6.30;;;;;;;29.12;43.80;99424.09;107880;1259;71752;-69
2023/06/26 05:39:29;;;;;;;7.00;5.90;;;;;;;28.94;44.16;99418.98;108069;1253;60756;-67
2023/06/26 05:41:57;;;;;;;8.30;6.60;;;;;;;28.66;44.61;99421.30;107959;1259;60438;-69
2023/06/26 05:44:25;;;;;;;7.50;6.40;;;;;;;28.62;44.75;99423.46;107977;1253;73238;-70
2023/06/26 05:46:52;;;;;;;8.90;6.60;;;;;;;28.71;44.93;99422.60;108134;1251;70060;-67
2023/06/26 05:49:20;;;;;;;10.10;6.70;;;;;;;28.93;44.75;99426.50;108524;1257;71186;-69
2023/06/26 05:51:48;;;;;;;7.20;6.20;;;;;;;28.85;44.49;99425.88;109163;1253;60470;-68
2023/06/26 05:54:15;;;;;;;8.20;6.50;;;;;;;28.67;44.72;99428.42;108158;1259;60328;-70
2023/06/26 05:56:43;;;;;;;8.60;6.60;;;;;;;28.67;44.84;99426.40;108193;1254;74026;-67
2023/06/26 05:59:11;;;;;;;7.80;6.90;;;;;;;28.64;45.08;99426.15;108070;1254;70472;-68
2023/06/26 06:01:40;;;;;;;8.20;6.30;;;;;;;28.66;45.06;99426.52;108221;1254;71992;-69
2023/06/26 06:04:08;;;;;;;8.60;7.10;;;;;;;28.75;45.01;99421.89;108165;1255;60386;-69
2023/06/26 06:06:35;;;;;;;9.90;6.70;;;;;;;28.89;45.14;99425.92;108275;1254;58995;-68
2023/06/26 06:09:03;;;;;;;9.20;7.00;;;;;;;29.03;44.62;99421.19;108219;1259;74294;-69
2023/06/26 06:11:30;;;;;;;8.30;6.50;;;;;;;28.98;44.60;99419.34;108034;1260;70009;-66
2023/06/26 06:13:59;;;;;;;8.50;6.80;;;;;;;29.01;44.30;99414.96;108077;1254;74696;-68
2023/06/26 06:16:29;;;;;;;7.10;6.40;;;;;;;29.10;44.37;99415.63;108000;1254;60374;-68
2023/06/26 06:18:56;;;;;;;9.00;6.40;;;;;;;29.17;44.18;99419.71;108057;1258;60336;-68
2023/06/26 06:21:23;;;;;;;7.00;6.00;;;;;;;29.13;43.93;99417.86;107941;1259;72862;-69
2023/06/26 06:23:51;;;;;;;11.80;6.70;;;;;;;29.09;43.73;99418.15;107960;1257;69765;-68
2023/06/26 06:26:18;;;;;;;8.60;6.70;;;;;;;29.18;43.83;99421.57;107938;1257;72583;-68
2023/06/26 06:28:46;;;;;;;8.60;6.40;;;;;;;29.16;44.07;99427.73;107925;1254;61940;-67
2023/06/26 06:31:13;;;;;;;8.40;6.50;;;;;;;29.15;44.14;99426.83;107803;1253;60752;-67
2023/06/26 06:33:41;;;;;;;8.70;6.90;;;;;;;28.95;44.68;99427.45;107969;1252;73858;-68
2023/06/26 06:36:08;;;;;;;10.10;6.20;;;;;;;28.57;45.25;99429.08;108379;1254;70653;-68
2023/06/26 06:38:35;;;;;;;7.60;6.30;;;;;;;28.50;45.42;99425.32;107997;1254;72990;-67
2023/06/26 06:41:03;;;;;;;8.20;6.20;;;;;;;28.50;45.67;99428.18;107938;1254;62670;-68
2023/06/26 06:43:30;;;;;;;7.50;6.00;;;;;;;28.33;45.85;99422.17;107948;1257;60264;-67
2023/06/26 06:45:58;;;;;;;7.00;6.00;;;;;;;28.23;46.25;99420.86;107928;1255;72613;-68
2023/06/26 06:48:25;;;;;;;7.40;6.20;;;;;;;28.32;46.08;99422.45;108004;1258;69990;-69
2023/06/26 06:50:53;;;;;;;7.00;6.10;;;;;;;28.41;45.93;99424.61;108111;1251;72722;-69
2023/06/26 06:53:21;;;;;;;9.10;6.40;;;;;;;28.36;45.98;99424.66;108105;1251;60395;-69
2023/06/26 06:55:49;;;;;;;7.20;6.40;;;;;;;28.38;45.91;99429.67;108066;1252;60292;-67
2023/06/26 06:58:18;;;;;;;8.30;6.00;;;;;;;28.38;45.78;99429.60;108121;1251;72545;-68
2023/06/26 07:00:46;;;;;;;8.80;6.40;;;;;;;28.39;45.78;99429.15;108202;1251;70259;-67
2023/06/26 07:03:13;;;;;;;7.70;6.00;;;;;;;28.45;45.57;99421.53;108066;1256;72798;-68
2023/06/26 07:05:41;;;;;;;9.40;6.30;;;;;;;28.33;45.78;99422.88;108739;1251;61724;-68
2023/06/26 07:08:09;;;;;;;9.20;6.20;;;;;;;28.64;45.59;99419.74;108282;1251;60339;-69
2023/06/26 07:10:36;;;;;;;8.20;6.10;;;;;;;28.71;45.45;99414.47;108053;1256;73911;-68
2023/06/26 07:13:04;;;;;;;7.20;5.40;;;;;;;28.60;45.52;99418.27;108067;1251;69796;-67
2023/06/26 07:15:32;;;;;;;6.30;5.50;;;;;;;28.54;45.53;99418.33;108176;1254;72676;-69
2023/06/26 07:17:59;;;;;;;6.00;5.40;;;;;;;28.44;45.49;99414.73;108276;1254;61819;-68
2023/06/26 07:20:27;;;;;;;7.40;5.30;;;;;;;28.27;45.68;99415.05;108193;1251;60439;-68
2023/06/26 07:22:54;;;;;;;5.80;5.00;;;;;;;28.30;45.60;99417.13;108095;1251;73833;-67
2023/06/26 07:25:22;;;;;;;7.90;5.20;;;;;;;28.22;45.45;99418.10;108169;1251;69919;-67
2023/06/26 07:27:50;;;;;;;6.30;5.20;;;;;;;28.23;45.69;99412.55;108149;1251;72667;-69
2023/06/26 07:30:18;;;;;;;5.40;4.70;;;;;;;28.19;45.63;99413.73;108133;1251;60594;-68
2023/06/26 07:32:45;;;;;;;6.30;4.70;;;;;;;28.18;45.63;99411.56;108146;1251;59355;-69
2023/06/26 07:35:13;;;;;;;5.50;4.50;;;;;;;28.16;45.69;99408.46;108149;1251;73945;-66
2023/06/26 07:37:41;;;;;;;7.70;4.60;;;;;;;28.19;45.78;99403.79;108126;1257;68727;-68
2023/06/26 07:40:09;;;;;;;5.10;4.30;;;;;;;28.11;45.67;99403.51;108122;1257;72917;-70
2023/06/26 07:42:37;;;;;;;10.30;4.40;;;;;;;28.04;46.00;99406.44;108188;1254;61718;-68
2023/06/26 07:45:09;;;;;;;5.60;4.60;;;;;;;28.14;45.82;99405.47;108107;1251;60472;-70
2023/06/26 07:47:38;;;;;;;4.70;3.80;;;;;;;28.34;45.60;99408.19;108072;1251;72121;-67
2023/06/26 07:50:05;;;;;;;4.10;3.70;;;;;;;28.61;45.17;99407.91;108739;1251;70434;-68
2023/06/26 07:52:34;;;;;;;4.00;3.60;;;;;;;28.79;44.55;99408.73;108784;1253;72801;-68
2023/06/26 07:55:01;;;;;;;3.70;3.20;;;;;;;28.94;44.34;99406.67;108100;1251;60435;-70
2023/06/26 07:57:32;;;;;;;4.80;3.70;;;;;;;28.86;44.36;99405.46;108203;1251;59116;-70
2023/06/26 07:59:59;;;;;;;3.70;3.20;;;;;;;28.84;44.26;99408.70;108149;1257;73788;-69
2023/06/26 08:02:27;;;;;;;3.70;3.10;;;;;;;28.67;44.37;99409.89;108171;1251;69272;-68
2023/06/26 08:04:54;;;;;;;3.30;2.90;;;;;;;28.61;44.27;99403.69;108043;1251;71669;-68
2023/06/26 08:07:22;;;;;;;3.50;3.00;;;;;;;28.50;44.57;99409.06;108165;1254;60427;-70
2023/06/26 08:09:49;;;;;;;4.10;2.80;;;;;;;28.46;44.87;99410.42;108086;1251;60338;-69
2023/06/26 08:12:16;;;;;;;3.90;2.70;;;;;;;28.48;44.66;99409.11;108159;1251;74242;-69
2023/06/26 08:14:44;;;;;;;5.30;2.60;;;;;;;28.48;44.39;99410.98;108150;1251;72035;-69
2023/06/26 08:17:12;;;;;;;2.40;2.20;;;;;;;28.66;43.98;99407.20;108092;1251;71399;-68
2023/06/26 08:19:39;;;;;;;2.80;2.00;;;;;;;28.88;43.63;99410.81;108114;1251;60380;-69
2023/06/26 08:22:07;;;;;;;3.80;2.80;;;;;;;28.83;43.71;99408.80;108391;1251;60414;-69
2023/06/26 08:24:35;;;;;;;2.40;1.80;;;;;;;28.64;44.22;99413.98;108124;1257;73846;-70
2023/06/26 08:27:03;;;;;;;2.30;2.00;;;;;;;28.63;44.19;99411.93;108065;1251;69400;-69
2023/06/26 08:29:31;;;;;;;2.20;2.00;;;;;;;28.52;44.31;99416.63;108901;1251;73382;-69
2023/06/26 08:31:59;;;;;;;2.60;2.00;;;;;;;28.48;44.38;99422.52;109062;1251;61388;-69
2023/06/26 08:34:26;;;;;;;2.50;2.20;;;;;;;28.42;44.32;99419.36;108077;1257;60223;-69
2023/06/26 08:36:54;;;;;;;2.60;1.80;;;;;;;28.22;44.55;99417.77;108126;1251;73582;-69
2023/06/26 08:39:21;;;;;;;2.50;2.00;;;;;;;27.99;45.20;99415.70;108096;1251;68459;-69
2023/06/26 08:41:48;;;;;;;2.30;1.90;;;;;;;27.96;45.20;99416.17;108088;1252;72740;-69
2023/06/26 08:44:16;;;;;;;2.00;1.80;;;;;;;28.23;45.00;99412.33;108069;1251;62147;-68
2023/06/26 08:46:44;;;;;;;2.00;1.70;;;;;;;28.29;44.83;99414.83;108112;1251;60392;-70
2023/06/26 08:49:24;;;;;;;3.20;1.60;;;;;;;28.41;44.65;99418.06;107954;1260;72205;-70
2023/06/26 08:52:05;;;;;;;1.60;1.40;;;;;;;28.29;44.80;99418.86;107927;1258;70455;-68
2023/06/26 08:54:35;;;;;;;2.10;1.90;;;;;;;28.34;45.17;99425.34;107897;1257;72930;-69
2023/06/26 08:57:03;;;;;;;2.00;1.80;;;;;;;28.54;45.43;99429.61;108090;1254;61038;-69
2023/06/26 08:59:30;;;;;;;2.50;1.40;;;;;;;28.69;45.49;99425.91;108034;1252;60617;-70
2023/06/26 09:01:58;;;;;;;2.70;1.60;;;;;;;28.81;45.67;99432.13;107833;1254;73041;-69
2023/06/26 09:04:27;;;;;;;1.40;1.30;;;;;;;28.93;45.39;99439.50;108027;1254;69401;-69
2023/06/26 09:06:54;;;;;;;1.10;1.00;;;;;;;28.80;45.26;99447.82;107782;1254;71441;-69
2023/06/26 09:09:22;;;;;;;1.20;1.00;;;;;;;28.71;46.08;99444.02;107984;1257;61631;-69
2023/06/26 09:11:49;;;;;;;0.80;0.80;;;;;;;29.20;46.44;99440.59;107960;1252;60303;-69
2023/06/26 09:14:17;;;;;;;1.30;1.20;;;;;;;29.72;45.99;99432.23;107962;1254;73867;-69
2023/06/26 09:16:45;;;;;;;1.40;0.80;;;;;;;30.41;44.21;99433.80;107836;1254;69952;-68
2023/06/26 09:19:13;;;;;;;0.80;0.80;;;;;;;31.02;43.17;99429.48;107921;1254;73458;-69
2023/06/26 09:21:41;;;;;;;3.70;1.00;;;;;;;31.40;41.19;99432.14;107913;1254;61602;-69
2023/06/26 09:24:10;;;;;;;0.60;0.60;;;;;;;31.75;39.50;99438.29;108114;1253;60412;-69
2023/06/26 09:26:38;;;;;;;1.70;0.70;;;;;;;31.78;37.96;99432.64;108089;1254;74218;-69
2023/06/26 09:29:06;;;;;;;6.00;0.90;;;;;;;31.44;38.03;99445.18;108008;1254;68861;-69
2023/06/26 09:31:34;;;;;;;3.50;0.90;;;;;;;31.24;38.19;99447.14;107946;1257;73808;-69
2023/06/26 09:34:08;;;;;;;1.10;1.00;;;;;;;30.81;38.71;99446.02;107991;1254;61883;-69
2023/06/26 09:36:36;;;;;;;2.30;0.90;;;;;;;30.70;39.52;99454.92;107927;1254;60939;-69
2023/06/26 09:39:10;;;;;;;0.90;0.70;;;;;;;30.43;39.67;99457.75;107926;1259;76134;-70
2023/06/26 09:41:44;;;;;;;1.60;0.90;;;;;;;30.36;39.24;99453.66;108219;1254;69285;-69
2023/06/26 09:44:13;;;;;;;0.70;0.50;;;;;;;30.31;39.08;99456.52;107992;1254;72684;-70
2023/06/26 09:46:41;;;;;;;1.20;0.50;;;;;;;30.16;39.18;99452.16;109179;1253;61807;-69
2023/06/26 09:49:12;;;;;;;1.00;0.90;;;;;;;30.14;39.08;99452.53;108048;1253;60411;-69
2023/06/26 09:51:41;;;;;;;0.90;0.70;;;;;;;29.98;39.30;99451.75;109162;1253;73188;-69
2023/06/26 09:54:09;;;;;;;2.30;1.10;;;;;;;30.00;39.45;99452.83;108251;1254;70088;-69
2023/06/26 09:56:37;;;;;;;2.20;1.00;;;;;;;29.99;39.38;99453.67;108026;1257;72641;-69
2023/06/26 09:59:05;;;;;;;2.60;1.00;;;;;;;30.28;39.07;99455.26;108022;1254;60781;-68
2023/06/26 10:03:44;;;;;;;2.20;1.20;;;;;;;27.68;43.62;99461.20;104526;1292;615675;-69
2023/06/26 10:06:11;;;;;;;1.40;1.30;;;;;;;29.01;41.19;99467.55;107065;1267;59107;-69
2023/06/26 10:08:40;;;;;;;2.90;1.10;;;;;;;29.17;40.68;99466.69;107142;1271;60054;-69
2023/06/26 10:11:08;;;;;;;1.80;1.50;;;;;;;29.08;41.12;99466.52;107023;1267;72226;-70
2023/06/26 10:13:38;;;;;;;1.90;1.00;;;;;;;29.02;41.32;99469.73;107068;1267;70103;-67
2023/06/26 10:16:05;;;;;;;2.20;0.90;;;;;;;29.10;41.21;99474.81;106986;1271;173397;-68
2023/06/26 10:18:32;;;;;;;1.90;1.00;;;;;;;29.22;40.89;99470.33;107193;1265;61811;-69
2023/06/26 10:20:58;;;;;;;1.20;1.00;;;;;;;29.50;40.12;99466.69;107262;1265;60206;-69
2023/06/26 10:23:25;;;;;;;1.70;1.00;;;;;;;29.90;39.61;99462.64;107148;1265;72311;-68
2023/06/26 10:25:52;;;;;;;2.00;1.20;;;;;;;30.18;39.32;99464.96;107105;1270;69877;-69
2023/06/26 10:28:22;;;;;;;1.70;1.30;;;;;;;30.45;38.81;99472.15;107150;1267;72453;-69
2023/06/26 10:30:48;;;;;;;5.30;1.60;;;;;;;30.65;38.27;99480.38;107154;1266;62008;-68
2023/06/26 10:33:15;;;;;;;3.00;2.00;;;;;;;30.66;37.89;99482.23;107244;1265;59531;-69
2023/06/26 10:35:43;;;;;;;7.30;2.10;;;;;;;30.56;38.08;99485.73;107114;1265;73138;-68
2023/06/26 10:38:10;;;;;;;2.70;1.80;;;;;;;30.60;37.97;99485.05;107321;1266;70677;-69
2023/06/26 10:40:48;;;;;;;8.60;2.60;;;;;;;30.67;37.74;99483.15;107163;1269;73195;-69
2023/06/26 10:43:15;;;;;;;3.40;1.50;;;;;;;30.92;37.37;99486.27;107144;1266;60502;-68
2023/06/26 10:45:46;;;;;;;1.90;1.60;;;;;;;31.11;36.85;99486.73;107165;1266;60399;-69
2023/06/26 10:48:14;;;;;;;6.60;1.50;;;;;;;31.40;36.58;99485.51;107182;1266;72741;-69
2023/06/26 10:50:41;;;;;;;4.00;1.60;;;;;;;31.66;35.36;99483.80;108512;1265;70274;-70
2023/06/26 10:53:34;;;;;;;1.70;1.40;;;;;;;31.84;34.84;99482.00;108401;1266;72924;-69
2023/06/26 10:56:02;;;;;;;2.50;1.60;;;;;;;32.05;34.89;99480.16;108523;1266;59168;-69
2023/06/26 10:58:42;;;;;;;6.10;1.50;;;;;;;32.26;34.67;99485.21;108534;1266;60199;-69
2023/06/26 11:01:25;;;;;;;1.40;1.00;;;;;;;32.29;34.31;99482.35;108525;1265;72793;-70
2023/06/26 11:04:02;;;;;;;1.30;1.10;;;;;;;32.60;34.37;99485.05;108398;1265;71416;-70
2023/06/26 11:06:30;;;;;;;4.10;1.10;;;;;;;33.08;33.46;99484.70;108379;1266;73067;-69
2023/06/26 11:09:04;;;;;;;9.20;1.60;;;;;;;32.87;32.77;99484.48;107273;1266;60157;-68
2023/06/26 11:11:51;;;;;;;2.20;1.10;;;;;;;32.58;33.41;99481.83;107215;1266;60142;-70
2023/06/26 11:14:19;;;;;;;1.50;0.90;;;;;;;32.91;33.54;99483.91;107219;1266;73150;-69
2023/06/26 11:16:45;;;;;;;1.30;0.90;;;;;;;33.25;32.85;99487.19;107228;1266;68360;-69
2023/06/26 11:19:13;;;;;;;1.60;1.20;;;;;;;33.34;32.73;99491.09;107229;1266;64045;-69
2023/06/26 11:21:40;;;;;;;1.60;1.10;;;;;;;33.30;32.06;99496.70;107319;1266;59527;-69
2023/06/26 11:24:07;;;;;;;1.10;1.00;;;;;;;33.12;32.32;99500.70;107280;1265;59841;-68
2023/06/26 11:26:40;;;;;;;1.90;1.20;;;;;;;32.91;32.75;99496.38;107272;1266;65443;-70
2023/06/26 11:29:07;;;;;;;3.70;1.30;;;;;;;32.72;32.83;99491.63;107272;1266;68891;-69
2023/06/26 11:31:36;;;;;;;2.30;1.30;;;;;;;32.33;33.15;99492.02;107251;1266;72566;-69